Kragnes, Minnesota
Current Conditions -  °F | °C
As of 3:53 PM on Friday 28 Nov 2014 (Local Time) from KFAR Reporting Station
Scattered Clouds Scattered Clouds  
Wind Chill:   Ceiling: Unl
Heat Index: 18°   Visibility: 10mi
Dew Point: 10°   Wind: 9mph
Humidity: 71%   Direction: 100°E
Pressure: 29.77"   Gusts: NA
Location:  46.9239°N, 96.7135°W
Report Text: KFAR 282153Z 10008KT 10SM FEW019 SCT085 M08/M12 A2977 RMK AO2 SLP101 T10781122
Loading
Personal Weather Stations






























Interactive Weather Map New forecast layout! Learn more

10-Day Weather Forecast

Advertisements
Track Severe Weather on mobile